Chesterfield, South Carolina
Current Conditions -  °F | °C
As of 9:15 AM on Wednesday 28 Jan 2015 (Local Time) from KCQW Reporting Station
Clear Clear  
Wind Chill: 25°   Ceiling: Unl
Heat Index: 32°   Visibility: 10mi
Dew Point: 14°   Wind: 8mph
Humidity: 47%   Direction: 330°NNW
Pressure: 30.26"   Gusts: NA
Location:  34.74°N, 80.09°W
Report Text: KCQW 281415Z AUTO 33007KT 10SM CLR 00/M10 A3026 RMK AO2
Loading
Personal Weather Stations






























Interactive Weather Map New forecast layout! Learn more

10-Day Weather Forecast

Advertisements
Track Severe Weather on mobile